Time;durP1;ratioP1;P1;durP2;ratioP2;P2;SDS_P1;SDS_P2;PMS_P1;PMS_P2;Temp;Humidity;BMP_temperature;BMP_pressure;BME280_temperature;BME280_humidity;BME280_pressure;Samples;Min_cycle;Max_cycle;Signal;HPM_P1;HPM_P2
2022/07/04 00:00:18;;;;;;;1.75;1.60;;;;;;;;;;5053663;28;20386;-86
2022/07/04 00:02:44;;;;;;;2.67;1.73;;;;;;;;;;5053557;28;20463;-85
2022/07/04 00:05:11;;;;;;;3.60;1.80;;;;;;;;;;5070460;28;20384;-86
2022/07/04 00:07:37;;;;;;;3.80;1.70;;;;;;;;;;5073479;28;20386;-86
2022/07/04 00:10:07;;;;;;;3.45;1.77;;;;;;;;;;5073288;28;20380;-86
2022/07/04 00:12:33;;;;;;;2.70;1.80;;;;;;;;;;5073407;28;20407;-86
2022/07/04 00:14:59;;;;;;;4.88;1.90;;;;;;;;;;5073267;28;20383;-86
2022/07/04 00:17:25;;;;;;;3.78;1.75;;;;;;;;;;5073223;28;20864;-86
2022/07/04 00:19:51;;;;;;;2.38;1.85;;;;;;;;;;5073150;28;20418;-85
2022/07/04 00:22:17;;;;;;;4.13;1.70;;;;;;;;;;5074055;28;20411;-85
2022/07/04 00:24:43;;;;;;;3.10;1.63;;;;;;;;;;5073100;28;20891;-85
2022/07/04 00:27:09;;;;;;;2.13;1.38;;;;;;;;;;5073314;28;20457;-86
2022/07/04 00:29:35;;;;;;;2.10;1.60;;;;;;;;;;5073076;28;20387;-85
2022/07/04 00:32:02;;;;;;;4.15;1.75;;;;;;;;;;5071989;28;20459;-86
2022/07/04 00:34:28;;;;;;;3.83;1.77;;;;;;;;;;5073072;28;20394;-86
2022/07/04 00:36:54;;;;;;;3.20;1.60;;;;;;;;;;5071691;28;20379;-86
2022/07/04 00:39:20;;;;;;;2.95;1.60;;;;;;;;;;5072757;28;20395;-86
2022/07/04 00:41:46;;;;;;;2.28;1.70;;;;;;;;;;5072107;28;20451;-87
2022/07/04 00:44:13;;;;;;;2.77;1.40;;;;;;;;;;5072809;28;20404;-86
2022/07/04 00:46:39;;;;;;;2.78;1.58;;;;;;;;;;5074940;28;20380;-86
2022/07/04 00:49:05;;;;;;;2.80;1.50;;;;;;;;;;5072593;28;20375;-86
2022/07/04 00:51:32;;;;;;;3.33;1.58;;;;;;;;;;5072806;28;20395;-86
2022/07/04 00:53:58;;;;;;;3.17;1.60;;;;;;;;;;5072625;28;20415;-86
2022/07/04 00:56:25;;;;;;;3.50;1.73;;;;;;;;;;5072997;28;20467;-86
2022/07/04 00:58:54;;;;;;;2.10;1.60;;;;;;;;;;5072043;28;20437;-86
2022/07/04 01:01:20;;;;;;;2.55;1.50;;;;;;;;;;5071921;28;20793;-86
2022/07/04 01:03:47;;;;;;;3.42;1.50;;;;;;;;;;5072399;28;20411;-87
2022/07/04 01:06:15;;;;;;;3.60;1.83;;;;;;;;;;5071129;28;20780;-86
2022/07/04 01:08:42;;;;;;;4.13;1.90;;;;;;;;;;5072578;28;20853;-85
2022/07/04 01:11:08;;;;;;;2.33;1.88;;;;;;;;;;5072305;28;20383;-86
2022/07/04 01:13:34;;;;;;;3.40;1.70;;;;;;;;;;5072078;28;20425;-86
2022/07/04 01:16:01;;;;;;;3.17;1.52;;;;;;;;;;5056762;28;20381;-86
2022/07/04 01:18:27;;;;;;;2.67;1.70;;;;;;;;;;5052146;28;20386;-86
2022/07/04 01:20:53;;;;;;;3.83;1.77;;;;;;;;;;5052209;28;20427;-86
2022/07/04 01:23:19;;;;;;;3.13;1.60;;;;;;;;;;5052207;28;20894;-86
2022/07/04 01:25:45;;;;;;;2.08;1.55;;;;;;;;;;5052182;28;20385;-86
2022/07/04 01:28:11;;;;;;;2.40;1.75;;;;;;;;;;5052223;28;20373;-86
2022/07/04 01:30:38;;;;;;;3.38;1.98;;;;;;;;;;5052040;28;20767;-86
2022/07/04 01:33:04;;;;;;;3.03;1.80;;;;;;;;;;5052150;28;20388;-86
2022/07/04 01:35:30;;;;;;;4.10;2.20;;;;;;;;;;5052049;28;20377;-86
2022/07/04 01:37:56;;;;;;;5.20;1.97;;;;;;;;;;5052036;28;20473;-86
2022/07/04 01:40:23;;;;;;;3.42;2.03;;;;;;;;;;5051700;28;20377;-86
2022/07/04 01:42:49;;;;;;;3.15;1.80;;;;;;;;;;5050963;28;20381;-86
2022/07/04 01:45:15;;;;;;;4.85;1.75;;;;;;;;;;5052003;28;20457;-86
2022/07/04 01:47:41;;;;;;;6.07;2.17;;;;;;;;;;5051897;28;20373;-86
2022/07/04 01:50:08;;;;;;;2.97;1.90;;;;;;;;;;5051852;28;20410;-86
2022/07/04 01:52:34;;;;;;;2.00;1.60;;;;;;;;;;5069434;28;20380;-86
2022/07/04 01:55:00;;;;;;;2.60;1.70;;;;;;;;;;5072041;28;20451;-86
2022/07/04 01:57:26;;;;;;;3.30;2.00;;;;;;;;;;5071815;28;20465;-86
2022/07/04 02:02:37;;;;;;;3.78;1.70;;;;;;;;;;5069537;28;20444;-86
2022/07/04 02:05:04;;;;;;;2.78;2.00;;;;;;;;;;5069867;28;20408;-87
2022/07/04 02:07:30;;;;;;;4.38;2.00;;;;;;;;;;5069745;28;20379;-86
2022/07/04 02:09:56;;;;;;;3.05;1.73;;;;;;;;;;5070110;28;20375;-86
2022/07/04 02:15:08;;;;;;;3.10;2.00;;;;;;;;;;5075497;28;20949;-87
2022/07/04 02:17:34;;;;;;;3.00;1.90;;;;;;;;;;5075571;28;20388;-88
2022/07/04 02:20:00;;;;;;;3.15;1.98;;;;;;;;;;5075174;28;20458;-88
2022/07/04 02:22:26;;;;;;;4.20;2.20;;;;;;;;;;5075370;28;20733;-88
2022/07/04 02:24:52;;;;;;;5.60;2.38;;;;;;;;;;5078109;28;20409;-86
2022/07/04 02:27:18;;;;;;;2.83;2.05;;;;;;;;;;5075315;28;20749;-88
2022/07/04 02:29:44;;;;;;;3.30;1.90;;;;;;;;;;5075535;28;20380;-87
2022/07/04 02:32:10;;;;;;;2.23;2.00;;;;;;;;;;5075197;28;20607;-87
2022/07/04 02:34:36;;;;;;;4.20;2.00;;;;;;;;;;5074893;28;20392;-87
2022/07/04 02:37:02;;;;;;;4.30;2.20;;;;;;;;;;5075108;28;20459;-86
2022/07/04 02:39:28;;;;;;;4.00;2.40;;;;;;;;;;5075345;28;20387;-87
2022/07/04 02:41:54;;;;;;;4.47;2.60;;;;;;;;;;5075126;28;20372;-86
2022/07/04 02:44:20;;;;;;;3.92;2.40;;;;;;;;;;5071084;28;20408;-87
2022/07/04 02:46:46;;;;;;;4.25;1.95;;;;;;;;;;5073176;28;20784;-86
2022/07/04 02:49:12;;;;;;;4.10;2.65;;;;;;;;;;5073305;28;20389;-86
2022/07/04 02:51:38;;;;;;;3.97;2.97;;;;;;;;;;5074554;28;20375;-86
2022/07/04 02:54:04;;;;;;;5.95;3.15;;;;;;;;;;5072914;28;20413;-86
2022/07/04 02:56:30;;;;;;;6.90;4.07;;;;;;;;;;5073206;28;20383;-86
2022/07/04 02:58:56;;;;;;;6.00;3.17;;;;;;;;;;5073645;28;20926;-86
2022/07/04 03:01:22;;;;;;;5.68;2.60;;;;;;;;;;5073728;28;20379;-86
2022/07/04 03:03:48;;;;;;;4.47;2.60;;;;;;;;;;5073429;28;20546;-86
2022/07/04 03:06:14;;;;;;;3.63;2.35;;;;;;;;;;5073575;28;20378;-86
2022/07/04 03:08:40;;;;;;;3.23;2.13;;;;;;;;;;5073533;28;20379;-86
2022/07/04 03:11:07;;;;;;;4.20;2.28;;;;;;;;;;5073836;28;20379;-85
2022/07/04 03:13:33;;;;;;;2.70;2.00;;;;;;;;;;5073292;28;20390;-85
2022/07/04 03:15:59;;;;;;;3.45;1.75;;;;;;;;;;5072927;28;20429;-85
2022/07/04 03:18:25;;;;;;;3.90;1.80;;;;;;;;;;5072393;28;20380;-85
2022/07/04 03:20:51;;;;;;;2.55;1.70;;;;;;;;;;5072811;28;20387;-85
2022/07/04 03:23:17;;;;;;;2.80;1.50;;;;;;;;;;5072116;28;20521;-84
2022/07/04 03:25:43;;;;;;;2.95;1.50;;;;;;;;;;5073223;28;20388;-84
2022/07/04 03:28:09;;;;;;;2.65;1.80;;;;;;;;;;5073653;28;20455;-85
2022/07/04 03:30:35;;;;;;;2.35;1.75;;;;;;;;;;5074133;28;20406;-84
2022/07/04 03:33:01;;;;;;;4.45;1.98;;;;;;;;;;5074210;28;20384;-85
2022/07/04 03:35:28;;;;;;;3.45;2.08;;;;;;;;;;5074011;28;20475;-84
2022/07/04 03:37:54;;;;;;;2.78;1.90;;;;;;;;;;5073922;28;20388;-85
2022/07/04 03:40:20;;;;;;;3.28;1.80;;;;;;;;;;5074221;28;20371;-84
2022/07/04 03:42:47;;;;;;;2.47;1.70;;;;;;;;;;5073993;28;20380;-84
2022/07/04 03:45:13;;;;;;;4.47;1.70;;;;;;;;;;5073943;28;20400;-84
2022/07/04 03:47:39;;;;;;;2.83;1.87;;;;;;;;;;5072605;28;20376;-84
2022/07/04 03:50:05;;;;;;;3.30;1.75;;;;;;;;;;5073943;28;20379;-85
2022/07/04 03:52:31;;;;;;;2.35;1.73;;;;;;;;;;5073709;28;20380;-84
2022/07/04 03:54:57;;;;;;;1.77;1.67;;;;;;;;;;5073939;28;20391;-84
2022/07/04 03:57:23;;;;;;;2.30;1.60;;;;;;;;;;5073707;28;20387;-85
2022/07/04 03:59:49;;;;;;;2.72;1.42;;;;;;;;;;5073674;28;20406;-85
2022/07/04 04:02:15;;;;;;;3.13;1.58;;;;;;;;;;5083756;28;20390;-84
2022/07/04 04:07:26;;;;;;;2.60;1.70;;;;;;;;;;5073818;28;20910;-85
2022/07/04 04:09:52;;;;;;;4.45;2.15;;;;;;;;;;5073257;28;20829;-85
2022/07/04 04:12:18;;;;;;;2.85;2.17;;;;;;;;;;5068740;28;20406;-84
2022/07/04 04:14:44;;;;;;;3.17;2.03;;;;;;;;;;5068258;28;20391;-85
2022/07/04 04:17:10;;;;;;;3.33;1.90;;;;;;;;;;5072953;28;20388;-84
2022/07/04 04:19:36;;;;;;;3.83;2.00;;;;;;;;;;5075526;28;20395;-85
2022/07/04 04:22:02;;;;;;;2.63;1.70;;;;;;;;;;5072350;28;20896;-85
2022/07/04 04:24:28;;;;;;;2.63;1.70;;;;;;;;;;5072767;28;20451;-85
2022/07/04 04:26:56;;;;;;;2.20;1.70;;;;;;;;;;5071932;28;21558;-85
2022/07/04 04:29:22;;;;;;;3.65;1.70;;;;;;;;;;5071742;28;20384;-86
2022/07/04 04:31:48;;;;;;;2.80;2.00;;;;;;;;;;5073036;28;20434;-85
2022/07/04 04:34:14;;;;;;;2.40;1.90;;;;;;;;;;5072679;28;20733;-85
2022/07/04 04:36:40;;;;;;;4.43;2.10;;;;;;;;;;5072689;28;20392;-85
2022/07/04 04:39:06;;;;;;;3.33;2.00;;;;;;;;;;5072810;28;20388;-85
2022/07/04 04:41:32;;;;;;;2.55;1.90;;;;;;;;;;5072778;28;20379;-85
2022/07/04 04:43:58;;;;;;;2.90;1.88;;;;;;;;;;5064746;28;20407;-85
2022/07/04 04:46:24;;;;;;;5.13;2.25;;;;;;;;;;5071258;28;20850;-85
2022/07/04 04:48:50;;;;;;;2.47;1.77;;;;;;;;;;5071409;28;20917;-85
2022/07/04 04:51:16;;;;;;;4.03;2.25;;;;;;;;;;5071275;28;20379;-85
2022/07/04 04:53:42;;;;;;;3.05;2.13;;;;;;;;;;5071440;28;20386;-85
2022/07/04 04:56:09;;;;;;;3.35;2.33;;;;;;;;;;5071357;28;21121;-86
2022/07/04 04:58:35;;;;;;;3.30;2.30;;;;;;;;;;5071538;28;20783;-85
2022/07/04 05:01:02;;;;;;;3.40;2.30;;;;;;;;;;5069906;28;20765;-85
2022/07/04 05:03:28;;;;;;;2.72;2.03;;;;;;;;;;5070237;28;20772;-85
2022/07/04 05:05:54;;;;;;;3.77;2.33;;;;;;;;;;5071692;28;20376;-85
2022/07/04 05:08:20;;;;;;;3.30;2.17;;;;;;;;;;5072426;28;20741;-85
2022/07/04 05:10:46;;;;;;;4.20;2.33;;;;;;;;;;5072284;28;20429;-85
2022/07/04 05:13:12;;;;;;;2.63;2.00;;;;;;;;;;5072332;28;20383;-85
2022/07/04 05:15:38;;;;;;;2.35;1.88;;;;;;;;;;5072223;28;20376;-86
2022/07/04 05:18:04;;;;;;;3.47;1.90;;;;;;;;;;5072294;28;20372;-85
2022/07/04 05:20:30;;;;;;;3.63;2.10;;;;;;;;;;5071830;28;20392;-85
2022/07/04 05:22:56;;;;;;;6.68;2.17;;;;;;;;;;5072010;28;20399;-85
2022/07/04 05:25:22;;;;;;;3.50;2.20;;;;;;;;;;5072364;28;20387;-86
2022/07/04 05:27:48;;;;;;;2.30;1.75;;;;;;;;;;5072205;28;20783;-85
2022/07/04 05:30:15;;;;;;;2.65;2.08;;;;;;;;;;5065103;28;20474;-85
2022/07/04 05:32:43;;;;;;;3.75;2.15;;;;;;;;;;5071831;28;20378;-84
2022/07/04 05:35:09;;;;;;;1.80;1.70;;;;;;;;;;5069242;28;20748;-85
2022/07/04 05:37:35;;;;;;;2.78;2.30;;;;;;;;;;5070349;28;20525;-84
2022/07/04 05:40:02;;;;;;;2.45;2.22;;;;;;;;;;5069625;28;20471;-84
2022/07/04 05:42:28;;;;;;;2.92;2.28;;;;;;;;;;5070715;28;20383;-85
2022/07/04 05:44:55;;;;;;;3.65;2.35;;;;;;;;;;5065738;28;20407;-84
2022/07/04 05:47:23;;;;;;;2.25;2.05;;;;;;;;;;5075021;28;20388;-85
2022/07/04 05:49:49;;;;;;;4.90;2.00;;;;;;;;;;5075929;28;20387;-85
2022/07/04 05:52:16;;;;;;;2.45;2.15;;;;;;;;;;5075973;28;20865;-85
2022/07/04 05:54:42;;;;;;;2.53;2.25;;;;;;;;;;5076234;28;20383;-85
2022/07/04 05:57:08;;;;;;;3.63;2.67;;;;;;;;;;5072909;28;20421;-85
2022/07/04 05:59:34;;;;;;;2.92;2.35;;;;;;;;;;5068938;28;20933;-85
2022/07/04 06:02:00;;;;;;;2.42;2.22;;;;;;;;;;5073939;28;20457;-84
2022/07/04 06:04:26;;;;;;;4.00;2.28;;;;;;;;;;5068097;28;20412;-85
2022/07/04 06:06:52;;;;;;;3.28;2.22;;;;;;;;;;5071634;28;20413;-86
2022/07/04 06:09:18;;;;;;;3.20;2.22;;;;;;;;;;5070058;28;20384;-87
2022/07/04 06:11:45;;;;;;;2.45;2.25;;;;;;;;;;5073301;28;20438;-86
2022/07/04 06:14:11;;;;;;;2.30;2.00;;;;;;;;;;5074688;28;20926;-85
2022/07/04 06:16:37;;;;;;;4.15;2.30;;;;;;;;;;5073880;28;20395;-85
2022/07/04 06:19:03;;;;;;;4.32;2.40;;;;;;;;;;5072247;28;20873;-85
2022/07/04 06:21:29;;;;;;;4.00;2.50;;;;;;;;;;5072939;28;20399;-85
2022/07/04 06:23:57;;;;;;;4.40;2.55;;;;;;;;;;5072407;28;20772;-85
2022/07/04 06:26:23;;;;;;;3.28;2.15;;;;;;;;;;5075981;28;20861;-85
2022/07/04 06:28:49;;;;;;;2.75;2.42;;;;;;;;;;5074779;28;20388;-84
2022/07/04 06:31:15;;;;;;;3.08;2.50;;;;;;;;;;5072886;28;20395;-84
2022/07/04 06:36:26;;;;;;;4.22;2.45;;;;;;;;;;5073557;28;20445;-84
2022/07/04 06:38:52;;;;;;;4.45;3.08;;;;;;;;;;5073126;28;20849;-84
2022/07/04 06:41:18;;;;;;;3.50;3.20;;;;;;;;;;5081534;28;20469;-83
2022/07/04 06:43:44;;;;;;;5.25;3.60;;;;;;;;;;5067284;28;20944;-88
2022/07/04 06:46:10;;;;;;;4.05;3.33;;;;;;;;;;5054916;28;20892;-85
2022/07/04 06:48:36;;;;;;;4.32;3.63;;;;;;;;;;5055347;28;20921;-84
2022/07/04 06:51:03;;;;;;;4.03;3.60;;;;;;;;;;5053513;28;20389;-84
2022/07/04 06:53:29;;;;;;;3.70;3.23;;;;;;;;;;5053619;28;20827;-84
2022/07/04 06:55:55;;;;;;;3.75;2.80;;;;;;;;;;5053517;28;20479;-85
2022/07/04 06:58:21;;;;;;;4.30;3.17;;;;;;;;;;5054702;28;20389;-83
2022/07/04 07:00:47;;;;;;;4.00;2.97;;;;;;;;;;5057526;28;20385;-83
2022/07/04 07:03:13;;;;;;;2.90;2.60;;;;;;;;;;5074538;28;20379;-84
2022/07/04 07:05:39;;;;;;;3.20;2.90;;;;;;;;;;5073403;28;20388;-83
2022/07/04 07:08:05;;;;;;;4.30;3.78;;;;;;;;;;5074523;28;20849;-84
2022/07/04 07:10:35;;;;;;;4.43;3.05;;;;;;;;;;5074463;28;20388;-83
2022/07/04 07:13:01;;;;;;;3.95;3.65;;;;;;;;;;5074437;28;20813;-84
2022/07/04 07:15:27;;;;;;;4.27;3.27;;;;;;;;;;5074486;28;20380;-83
2022/07/04 07:17:53;;;;;;;4.18;3.05;;;;;;;;;;5074115;28;20837;-84
2022/07/04 07:20:19;;;;;;;3.00;2.67;;;;;;;;;;5070720;28;20400;-83
2022/07/04 07:22:45;;;;;;;3.20;2.78;;;;;;;;;;5074604;28;20376;-84
2022/07/04 07:25:12;;;;;;;3.03;2.47;;;;;;;;;;5074256;28;20452;-84
2022/07/04 07:27:38;;;;;;;3.30;2.60;;;;;;;;;;5074326;28;20391;-83
2022/07/04 07:30:05;;;;;;;2.85;2.65;;;;;;;;;;5074202;28;20926;-83
2022/07/04 07:32:31;;;;;;;5.83;3.27;;;;;;;;;;5074249;28;20856;-87
2022/07/04 07:34:57;;;;;;;3.08;2.30;;;;;;;;;;5074297;28;20454;-86
2022/07/04 07:37:23;;;;;;;2.60;2.20;;;;;;;;;;5072766;28;20829;-86
2022/07/04 07:39:50;;;;;;;4.47;2.70;;;;;;;;;;5069870;28;20446;-87
2022/07/04 07:42:16;;;;;;;2.58;2.17;;;;;;;;;;5072737;28;20396;-87
2022/07/04 07:44:45;;;;;;;3.45;2.40;;;;;;;;;;5072787;28;20403;-87
2022/07/04 07:47:11;;;;;;;3.05;2.78;;;;;;;;;;5072749;28;20386;-87
2022/07/04 07:49:37;;;;;;;3.63;2.63;;;;;;;;;;5072631;28;20463;-88
2022/07/04 07:52:04;;;;;;;2.80;2.47;;;;;;;;;;5076030;28;20425;-86
2022/07/04 07:54:30;;;;;;;3.15;2.50;;;;;;;;;;5072065;28;20891;-87
2022/07/04 07:56:56;;;;;;;4.22;2.20;;;;;;;;;;5072379;28;20455;-87
2022/07/04 07:59:21;;;;;;;3.55;2.10;;;;;;;;;;5072036;28;20384;-87
2022/07/04 08:01:47;;;;;;;2.22;1.90;;;;;;;;;;5073698;28;20877;-88
2022/07/04 08:06:58;;;;;;;2.88;2.38;;;;;;;;;;5072901;28;20376;-88
2022/07/04 08:09:24;;;;;;;2.83;2.25;;;;;;;;;;5065625;28;20393;-87
2022/07/04 08:11:50;;;;;;;2.90;1.90;;;;;;;;;;5073401;28;20372;-87
2022/07/04 08:14:16;;;;;;;3.90;2.20;;;;;;;;;;5072105;28;20386;-86
2022/07/04 08:16:42;;;;;;;2.73;2.20;;;;;;;;;;5072445;28;20411;-87
2022/07/04 08:19:08;;;;;;;3.58;2.60;;;;;;;;;;5071147;28;20423;-87
2022/07/04 08:21:34;;;;;;;3.33;2.78;;;;;;;;;;5072101;28;20395;-88
2022/07/04 08:24:00;;;;;;;2.33;1.98;;;;;;;;;;5071900;28;20461;-87
2022/07/04 08:26:26;;;;;;;2.35;2.15;;;;;;;;;;5072106;28;20388;-87
2022/07/04 08:28:55;;;;;;;2.40;2.10;;;;;;;;;;5071947;28;20376;-87
2022/07/04 08:31:21;;;;;;;2.50;1.85;;;;;;;;;;5074642;28;20379;-87
2022/07/04 08:33:47;;;;;;;2.80;2.50;;;;;;;;;;5084012;28;20388;-88
2022/07/04 08:36:16;;;;;;;3.63;2.63;;;;;;;;;;5071915;28;20462;-88
2022/07/04 08:38:42;;;;;;;2.85;1.90;;;;;;;;;;5071926;28;20421;-88
2022/07/04 08:41:08;;;;;;;2.17;1.80;;;;;;;;;;5071460;28;20402;-88
2022/07/04 08:43:36;;;;;;;3.85;2.67;;;;;;;;;;5069625;28;20415;-89
2022/07/04 08:46:04;;;;;;;4.30;2.70;;;;;;;;;;5071513;28;20403;-88
2022/07/04 08:48:31;;;;;;;3.20;2.05;;;;;;;;;;5071506;28;20877;-88
2022/07/04 08:50:57;;;;;;;2.47;2.10;;;;;;;;;;5071284;28;20741;-88
2022/07/04 08:53:27;;;;;;;2.67;2.20;;;;;;;;;;5071563;28;20403;-89
2022/07/04 08:58:38;;;;;;;5.13;3.83;;;;;;;;;;5071494;28;20429;-89
2022/07/04 09:01:06;;;;;;;5.18;4.00;;;;;;;;;;5071333;28;20407;-88
2022/07/04 09:03:33;;;;;;;6.28;5.30;;;;;;;;;;5071232;28;20435;-89
2022/07/04 09:05:59;;;;;;;7.60;6.20;;;;;;;;;;5069934;28;20384;-90
2022/07/04 09:08:25;;;;;;;5.90;5.30;;;;;;;;;;5071299;28;20374;-89
2022/07/04 09:10:52;;;;;;;7.78;5.43;;;;;;;;;;5071183;28;20376;-89
2022/07/04 09:13:18;;;;;;;4.20;3.80;;;;;;;;;;5071037;28;20414;-89
2022/07/04 09:15:46;;;;;;;2.67;2.03;;;;;;;;;;5069682;28;20441;-89
2022/07/04 09:18:24;;;;;;;3.42;2.63;;;;;;;;;;5069876;28;20817;-90
2022/07/04 09:20:50;;;;;;;2.05;1.75;;;;;;;;;;5070235;28;20955;-89
2022/07/04 09:23:18;;;;;;;3.25;2.00;;;;;;;;;;5069207;28;20395;-90
2022/07/04 09:25:44;;;;;;;2.85;1.60;;;;;;;;;;5070618;28;20379;-89
2022/07/04 09:28:10;;;;;;;4.15;2.10;;;;;;;;;;5071237;28;20744;-90
2022/07/04 09:30:47;;;;;;;5.15;4.10;;;;;;;;;;5070910;28;20415;-89
2022/07/04 09:33:17;;;;;;;2.90;2.10;;;;;;;;;;5071165;28;20421;-89
2022/07/04 09:35:43;;;;;;;2.38;1.80;;;;;;;;;;5071047;28;20371;-90
2022/07/04 09:38:11;;;;;;;2.13;1.80;;;;;;;;;;5071173;28;20852;-89
2022/07/04 09:43:23;;;;;;;2.85;2.63;;;;;;;;;;5070616;28;20387;-91
2022/07/04 09:45:56;;;;;;;2.00;1.80;;;;;;;;;;5070948;28;20463;-90
2022/07/04 09:48:22;;;;;;;2.92;1.92;;;;;;;;;;5071017;28;20383;-91
2022/07/04 09:50:48;;;;;;;1.90;1.80;;;;;;;;;;5069929;28;20500;-90
2022/07/04 09:53:14;;;;;;;2.35;1.83;;;;;;;;;;5070623;28;20462;-89
2022/07/04 09:55:40;;;;;;;2.50;1.83;;;;;;;;;;5071014;28;20434;-89
2022/07/04 09:58:10;;;;;;;1.90;1.60;;;;;;;;;;5071180;28;20372;-90
2022/07/04 10:00:37;;;;;;;1.88;1.50;;;;;;;;;;5070730;28;20376;-91
2022/07/04 10:03:22;;;;;;;1.75;1.30;;;;;;;;;;5069714;28;20384;-90
2022/07/04 10:06:02;;;;;;;2.50;1.60;;;;;;;;;;5069804;28;20402;-90
2022/07/04 10:08:28;;;;;;;2.85;1.67;;;;;;;;;;5071020;28;20797;-90
2022/07/04 10:10:58;;;;;;;1.63;1.40;;;;;;;;;;5070509;28;20376;-90
2022/07/04 10:13:24;;;;;;;2.53;1.50;;;;;;;;;;5070751;28;20372;-90
2022/07/04 10:15:50;;;;;;;2.17;1.30;;;;;;;;;;5069036;28;20464;-90
2022/07/04 10:18:18;;;;;;;2.70;1.42;;;;;;;;;;5070325;28;20861;-90
2022/07/04 10:20:44;;;;;;;2.22;1.38;;;;;;;;;;5067987;28;20889;-90
2022/07/04 10:23:11;;;;;;;1.90;1.30;;;;;;;;;;5070790;28;20376;-90
2022/07/04 10:25:37;;;;;;;2.25;1.45;;;;;;;;;;5078050;28;20407;-91
2022/07/04 10:28:03;;;;;;;2.20;1.20;;;;;;;;;;5069915;28;20885;-90
2022/07/04 10:30:31;;;;;;;1.33;1.13;;;;;;;;;;5070474;28;20384;-90
2022/07/04 10:32:58;;;;;;;2.80;1.50;;;;;;;;;;5074390;28;20424;-91
2022/07/04 10:35:43;;;;;;;1.90;1.30;;;;;;;;;;5074199;28;20447;-90
2022/07/04 10:38:11;;;;;;;2.65;1.83;;;;;;;;;;5073985;28;20457;-90
2022/07/04 10:40:42;;;;;;;3.08;2.42;;;;;;;;;;5073175;28;20750;-90
2022/07/04 10:43:29;;;;;;;3.05;1.70;;;;;;;;;;5074158;28;20859;-91
2022/07/04 10:45:55;;;;;;;2.90;1.90;;;;;;;;;;5074304;28;20893;-89
2022/07/04 10:48:23;;;;;;;2.60;1.80;;;;;;;;;;5072075;28;20772;-91
2022/07/04 10:51:07;;;;;;;2.03;1.50;;;;;;;;;;5074924;28;20388;-92
2022/07/04 10:53:53;;;;;;;1.40;1.27;;;;;;;;;;5075178;28;20368;-90
2022/07/04 10:56:19;;;;;;;3.30;2.50;;;;;;;;;;5074780;28;20372;-91
2022/07/04 10:58:45;;;;;;;3.20;2.10;;;;;;;;;;5074822;28;20379;-91
2022/07/04 11:01:12;;;;;;;2.10;1.65;;;;;;;;;;5074431;28;20426;-91
2022/07/04 11:03:47;;;;;;;3.05;1.70;;;;;;;;;;5073897;28;20404;-90
2022/07/04 11:06:32;;;;;;;1.77;1.63;;;;;;;;;;5065958;28;20429;-90
2022/07/04 11:09:11;;;;;;;3.10;1.58;;;;;;;;;;5072648;28;20383;-91
2022/07/04 11:11:49;;;;;;;2.60;1.23;;;;;;;;;;5068025;28;20866;-91
2022/07/04 11:14:31;;;;;;;2.27;1.37;;;;;;;;;;5058764;28;20381;-91
2022/07/04 11:16:57;;;;;;;1.35;1.08;;;;;;;;;;5061947;28;20376;-91
2022/07/04 11:19:23;;;;;;;2.45;1.13;;;;;;;;;;5074504;28;20380;-91
2022/07/04 11:21:49;;;;;;;1.85;1.10;;;;;;;;;;5074489;28;20906;-91
2022/07/04 11:24:15;;;;;;;2.60;1.85;;;;;;;;;;5074739;28;20412;-91
2022/07/04 11:26:41;;;;;;;2.28;1.35;;;;;;;;;;5072635;28;20387;-91
2022/07/04 11:29:07;;;;;;;2.05;1.33;;;;;;;;;;5073744;28;20387;-91
2022/07/04 11:31:37;;;;;;;1.77;1.10;;;;;;;;;;5074265;28;20730;-91
2022/07/04 11:34:03;;;;;;;1.73;1.25;;;;;;;;;;5074269;28;20382;-91
2022/07/04 11:36:28;;;;;;;2.35;1.20;;;;;;;;;;5073111;28;20475;-91
2022/07/04 11:38:55;;;;;;;1.88;1.13;;;;;;;;;;5074290;28;20394;-91
2022/07/04 11:47:06;;;;;;;1.45;1.20;;;;;;;;;;5072001;28;20421;-92
2022/07/04 11:49:32;;;;;;;2.15;1.20;;;;;;;;;;5073286;28;20379;-90
2022/07/04 11:51:58;;;;;;;2.50;1.50;;;;;;;;;;5073504;28;20380;-91
2022/07/04 11:54:24;;;;;;;1.88;1.67;;;;;;;;;;5073875;28;20388;-91
2022/07/04 11:56:51;;;;;;;2.38;1.40;;;;;;;;;;5073519;28;20394;-91
2022/07/04 11:59:17;;;;;;;1.90;1.13;;;;;;;;;;5074682;28;20753;-91
2022/07/04 12:01:44;;;;;;;2.77;1.50;;;;;;;;;;5075958;28;20378;-91
2022/07/04 12:04:13;;;;;;;1.20;1.10;;;;;;;;;;5062252;28;20407;-90
2022/07/04 12:06:39;;;;;;;1.80;1.10;;;;;;;;;;5073248;28;20375;-90
2022/07/04 12:09:06;;;;;;;2.37;1.33;;;;;;;;;;5073806;28;20459;-91
2022/07/04 12:11:51;;;;;;;1.80;1.40;;;;;;;;;;5069909;28;20378;-91
2022/07/04 12:14:17;;;;;;;2.28;1.35;;;;;;;;;;5069257;28;20381;-91
2022/07/04 12:16:43;;;;;;;2.90;1.40;;;;;;;;;;5073021;28;20384;-91
2022/07/04 12:19:10;;;;;;;1.60;1.10;;;;;;;;;;5073375;28;20375;-91
2022/07/04 12:21:36;;;;;;;1.92;1.50;;;;;;;;;;5069877;28;20431;-92
2022/07/04 12:24:04;;;;;;;2.03;1.30;;;;;;;;;;5073249;28;20509;-91
2022/07/04 12:26:31;;;;;;;3.40;1.52;;;;;;;;;;5075137;28;20919;-92
2022/07/04 12:29:00;;;;;;;1.80;1.23;;;;;;;;;;5076172;28;20437;-92
2022/07/04 12:31:45;;;;;;;2.97;1.33;;;;;;;;;;5072726;28;20403;-92
2022/07/04 12:34:18;;;;;;;1.63;1.38;;;;;;;;;;5072840;28;20784;-91
2022/07/04 12:36:54;;;;;;;3.08;1.70;;;;;;;;;;5073317;28;20443;-91
2022/07/04 12:39:30;;;;;;;2.77;1.77;;;;;;;;;;5073165;28;20440;-91
2022/07/04 12:42:09;;;;;;;2.97;2.30;;;;;;;;;;5070183;28;20384;-91
2022/07/04 12:44:36;;;;;;;2.70;2.00;;;;;;;;;;5070059;28;20768;-91
2022/07/04 12:47:03;;;;;;;2.60;1.67;;;;;;;;;;5071061;28;20437;-92
2022/07/04 12:49:29;;;;;;;1.52;1.40;;;;;;;;;;5072887;28;20379;-91
2022/07/04 12:52:08;;;;;;;2.30;1.45;;;;;;;;;;5072333;28;20857;-92
2022/07/04 12:54:35;;;;;;;1.67;1.20;;;;;;;;;;5053516;28;20404;-93
2022/07/04 12:57:05;;;;;;;5.55;1.80;;;;;;;;;;5064281;28;20396;-93
2022/07/04 12:59:31;;;;;;;3.50;2.25;;;;;;;;;;5058498;28;20395;-93
2022/07/04 13:01:57;;;;;;;2.38;1.90;;;;;;;;;;5065061;28;20394;-93
2022/07/04 13:04:23;;;;;;;2.42;1.50;;;;;;;;;;5068296;28;20914;-92
2022/07/04 13:06:49;;;;;;;2.65;1.63;;;;;;;;;;5070457;28;20384;-93
2022/07/04 13:09:15;;;;;;;2.42;1.52;;;;;;;;;;5070782;28;20384;-92
2022/07/04 13:14:26;;;;;;;1.67;1.42;;;;;;;;;;5055101;28;20408;-92
2022/07/04 13:16:52;;;;;;;2.67;1.17;;;;;;;;;;5059159;28;20857;-93
2022/07/04 13:19:18;;;;;;;1.38;1.20;;;;;;;;;;5069172;28;20476;-92
2022/07/04 13:21:44;;;;;;;3.20;1.50;;;;;;;;;;5062859;28;20408;-91
2022/07/04 13:24:10;;;;;;;1.35;1.20;;;;;;;;;;5068357;28;20447;-91
2022/07/04 13:26:37;;;;;;;5.20;1.40;;;;;;;;;;5069064;28;20399;-93
2022/07/04 13:29:04;;;;;;;3.15;1.40;;;;;;;;;;5071079;28;20384;-92
2022/07/04 13:31:30;;;;;;;4.35;2.30;;;;;;;;;;5069119;28;20819;-92
2022/07/04 13:33:56;;;;;;;2.90;1.80;;;;;;;;;;5070061;28;20810;-92
2022/07/04 13:36:22;;;;;;;2.38;1.50;;;;;;;;;;5071619;28;20392;-91
2022/07/04 13:38:48;;;;;;;3.28;1.55;;;;;;;;;;5056501;28;20484;-92
2022/07/04 13:41:14;;;;;;;2.20;1.50;;;;;;;;;;5054606;28;20443;-91
2022/07/04 13:43:40;;;;;;;2.45;1.77;;;;;;;;;;5052040;28;20405;-91
2022/07/04 13:46:07;;;;;;;3.20;1.70;;;;;;;;;;5066479;28;20533;-91
2022/07/04 13:48:33;;;;;;;3.72;1.60;;;;;;;;;;5076486;28;20914;-92
2022/07/04 13:50:59;;;;;;;3.50;1.52;;;;;;;;;;5066269;28;20416;-92
2022/07/04 13:53:25;;;;;;;2.58;1.52;;;;;;;;;;5072116;28;20849;-93
2022/07/04 13:55:51;;;;;;;4.50;1.15;;;;;;;;;;5056762;28;20388;-91
2022/07/04 13:58:17;;;;;;;2.72;1.05;;;;;;;;;;5091266;28;20387;-92
2022/07/04 14:00:44;;;;;;;1.67;1.10;;;;;;;;;;5056234;28;20394;-91
2022/07/04 14:03:11;;;;;;;2.17;0.93;;;;;;;;;;5070724;28;20779;-91
2022/07/04 14:05:37;;;;;;;1.88;1.00;;;;;;;;;;5070478;28;20773;-90
2022/07/04 14:08:03;;;;;;;1.83;1.10;;;;;;;;;;5074516;28;20379;-91
2022/07/04 14:10:29;;;;;;;1.30;1.00;;;;;;;;;;5065949;28;20433;-91
2022/07/04 14:12:55;;;;;;;2.85;1.00;;;;;;;;;;5075800;28;20376;-91
2022/07/04 14:15:22;;;;;;;1.33;0.80;;;;;;;;;;5065085;28;20865;-91
2022/07/04 14:17:48;;;;;;;2.30;0.82;;;;;;;;;;5064157;28;20732;-91
2022/07/04 14:20:14;;;;;;;1.45;0.90;;;;;;;;;;5062353;28;20397;-90
2022/07/04 14:22:40;;;;;;;1.45;1.00;;;;;;;;;;5077526;28;20460;-91
2022/07/04 14:25:07;;;;;;;1.05;0.90;;;;;;;;;;5072521;28;20407;-91
2022/07/04 14:27:34;;;;;;;1.50;1.08;;;;;;;;;;5078035;28;20380;-92
2022/07/04 14:30:00;;;;;;;1.25;1.00;;;;;;;;;;5064400;28;20410;-90
2022/07/04 14:32:26;;;;;;;1.70;0.90;;;;;;;;;;5073401;28;20798;-92
2022/07/04 14:34:52;;;;;;;1.77;0.98;;;;;;;;;;5057818;28;20428;-94
2022/07/04 14:37:18;;;;;;;2.53;1.30;;;;;;;;;;5071569;28;20384;-93
2022/07/04 14:39:47;;;;;;;1.50;0.85;;;;;;;;;;5072136;28;20395;-91
2022/07/04 14:42:13;;;;;;;2.22;1.40;;;;;;;;;;5074547;28;20470;-93
2022/07/04 14:44:39;;;;;;;1.52;1.20;;;;;;;;;;5073555;28;20874;-92
2022/07/04 14:47:05;;;;;;;1.85;1.20;;;;;;;;;;5070434;28;20387;-91
2022/07/04 14:49:32;;;;;;;2.85;1.40;;;;;;;;;;5073559;28;20387;-92
2022/07/04 14:51:58;;;;;;;3.20;1.10;;;;;;;;;;5067000;28;20390;-91
2022/07/04 14:54:24;;;;;;;1.25;0.75;;;;;;;;;;5077005;28;20383;-92
2022/07/04 14:56:50;;;;;;;1.92;1.17;;;;;;;;;;5072326;28;20423;-92
2022/07/04 14:59:16;;;;;;;1.80;1.00;;;;;;;;;;5075002;28;20437;-92
2022/07/04 15:01:42;;;;;;;2.72;1.27;;;;;;;;;;5066000;28;20807;-91
2022/07/04 15:04:09;;;;;;;2.65;1.05;;;;;;;;;;5068765;28;20916;-90
2022/07/04 15:06:35;;;;;;;1.77;1.00;;;;;;;;;;5071713;28;20396;-91
2022/07/04 15:09:03;;;;;;;2.15;1.20;;;;;;;;;;5069530;28;20384;-90